sensor_id;sensor_type;location;lat;lon;timestamp;P1;durP1;ratioP1;P2;durP2;ratioP2
4198;SDS011;2113;50.946;14.610;2022-11-20T00:01:31;33.72;;;14.82;;
4198;SDS011;2113;50.946;14.610;2022-11-20T00:04:00;26.83;;;12.30;;
4198;SDS011;2113;50.946;14.610;2022-11-20T00:06:30;23.98;;;12.52;;
4198;SDS011;2113;50.946;14.610;2022-11-20T00:08:59;28.05;;;12.00;;
4198;SDS011;2113;50.946;14.610;2022-11-20T00:11:29;33.28;;;12.85;;
4198;SDS011;2113;50.946;14.610;2022-11-20T00:13:59;25.63;;;11.25;;
4198;SDS011;2113;50.946;14.610;2022-11-20T00:16:29;33.10;;;14.45;;
4198;SDS011;2113;50.946;14.610;2022-11-20T00:18:59;28.95;;;13.35;;
4198;SDS011;2113;50.946;14.610;2022-11-20T00:21:27;31.17;;;14.13;;
4198;SDS011;2113;50.946;14.610;2022-11-20T00:23:57;32.92;;;14.07;;
4198;SDS011;2113;50.946;14.610;2022-11-20T00:26:27;33.58;;;15.48;;
4198;SDS011;2113;50.946;14.610;2022-11-20T00:28:57;27.02;;;12.10;;
4198;SDS011;2113;50.946;14.610;2022-11-20T00:31:26;29.20;;;14.60;;
4198;SDS011;2113;50.946;14.610;2022-11-20T00:33:55;30.15;;;14.73;;
4198;SDS011;2113;50.946;14.610;2022-11-20T00:36:24;31.70;;;16.20;;
4198;SDS011;2113;50.946;14.610;2022-11-20T00:38:55;29.77;;;14.20;;
4198;SDS011;2113;50.946;14.610;2022-11-20T00:41:26;36.38;;;14.75;;
4198;SDS011;2113;50.946;14.610;2022-11-20T00:43:55;31.27;;;14.85;;
4198;SDS011;2113;50.946;14.610;2022-11-20T00:46:24;33.20;;;14.77;;
4198;SDS011;2113;50.946;14.610;2022-11-20T00:48:54;28.00;;;11.70;;
4198;SDS011;2113;50.946;14.610;2022-11-20T00:51:23;23.42;;;9.90;;
4198;SDS011;2113;50.946;14.610;2022-11-20T00:53:54;31.50;;;11.73;;
4198;SDS011;2113;50.946;14.610;2022-11-20T00:56:23;28.92;;;11.88;;
4198;SDS011;2113;50.946;14.610;2022-11-20T00:58:53;30.67;;;12.88;;
4198;SDS011;2113;50.946;14.610;2022-11-20T01:01:22;32.33;;;12.15;;
4198;SDS011;2113;50.946;14.610;2022-11-20T01:03:52;30.08;;;12.32;;
4198;SDS011;2113;50.946;14.610;2022-11-20T01:06:23;27.10;;;13.77;;
4198;SDS011;2113;50.946;14.610;2022-11-20T01:08:53;31.27;;;13.90;;
4198;SDS011;2113;50.946;14.610;2022-11-20T01:11:23;36.92;;;13.10;;
4198;SDS011;2113;50.946;14.610;2022-11-20T01:13:55;26.30;;;11.90;;
4198;SDS011;2113;50.946;14.610;2022-11-20T01:16:25;26.52;;;11.48;;
4198;SDS011;2113;50.946;14.610;2022-11-20T01:18:56;30.27;;;15.15;;
4198;SDS011;2113;50.946;14.610;2022-11-20T01:21:26;30.90;;;13.00;;
4198;SDS011;2113;50.946;14.610;2022-11-20T01:23:56;34.92;;;13.13;;
4198;SDS011;2113;50.946;14.610;2022-11-20T01:26:25;27.05;;;12.75;;
4198;SDS011;2113;50.946;14.610;2022-11-20T01:28:56;27.63;;;12.18;;
4198;SDS011;2113;50.946;14.610;2022-11-20T01:31:26;30.33;;;13.23;;
4198;SDS011;2113;50.946;14.610;2022-11-20T01:33:57;30.60;;;11.20;;
4198;SDS011;2113;50.946;14.610;2022-11-20T01:36:27;29.75;;;12.75;;
4198;SDS011;2113;50.946;14.610;2022-11-20T01:38:57;25.58;;;12.00;;
4198;SDS011;2113;50.946;14.610;2022-11-20T01:41:28;29.63;;;12.35;;
4198;SDS011;2113;50.946;14.610;2022-11-20T01:44:20;34.20;;;13.95;;
4198;SDS011;2113;50.946;14.610;2022-11-20T01:46:52;25.30;;;11.10;;
4198;SDS011;2113;50.946;14.610;2022-11-20T01:49:24;23.73;;;11.15;;
4198;SDS011;2113;50.946;14.610;2022-11-20T01:52:02;32.60;;;14.05;;
4198;SDS011;2113;50.946;14.610;2022-11-20T01:54:34;37.50;;;13.18;;
4198;SDS011;2113;50.946;14.610;2022-11-20T01:57:06;27.70;;;13.80;;
4198;SDS011;2113;50.946;14.610;2022-11-20T01:59:40;29.83;;;12.10;;
4198;SDS011;2113;50.946;14.610;2022-11-20T02:02:19;28.45;;;13.35;;
4198;SDS011;2113;50.946;14.610;2022-11-20T02:04:49;26.92;;;12.40;;
4198;SDS011;2113;50.946;14.610;2022-11-20T02:07:20;35.53;;;11.70;;
4198;SDS011;2113;50.946;14.610;2022-11-20T02:09:50;33.97;;;12.90;;
4198;SDS011;2113;50.946;14.610;2022-11-20T02:12:24;34.25;;;12.25;;
4198;SDS011;2113;50.946;14.610;2022-11-20T02:15:14;24.98;;;11.02;;
4198;SDS011;2113;50.946;14.610;2022-11-20T02:17:43;30.27;;;12.98;;
4198;SDS011;2113;50.946;14.610;2022-11-20T02:20:12;22.88;;;11.43;;
4198;SDS011;2113;50.946;14.610;2022-11-20T02:22:43;27.95;;;12.40;;
4198;SDS011;2113;50.946;14.610;2022-11-20T02:25:26;39.15;;;14.95;;
4198;SDS011;2113;50.946;14.610;2022-11-20T02:27:58;34.88;;;11.52;;
4198;SDS011;2113;50.946;14.610;2022-11-20T02:30:26;31.17;;;13.85;;
4198;SDS011;2113;50.946;14.610;2022-11-20T02:32:55;26.52;;;12.68;;
4198;SDS011;2113;50.946;14.610;2022-11-20T02:35:40;33.63;;;13.57;;
4198;SDS011;2113;50.946;14.610;2022-11-20T02:38:14;26.48;;;11.65;;
4198;SDS011;2113;50.946;14.610;2022-11-20T02:40:44;30.30;;;12.30;;
4198;SDS011;2113;50.946;14.610;2022-11-20T02:43:19;29.27;;;13.15;;
4198;SDS011;2113;50.946;14.610;2022-11-20T02:45:48;29.10;;;11.52;;
4198;SDS011;2113;50.946;14.610;2022-11-20T02:48:16;24.15;;;12.18;;
4198;SDS011;2113;50.946;14.610;2022-11-20T02:50:45;28.10;;;12.98;;
4198;SDS011;2113;50.946;14.610;2022-11-20T02:53:14;25.98;;;11.10;;
4198;SDS011;2113;50.946;14.610;2022-11-20T02:55:44;30.08;;;13.35;;
4198;SDS011;2113;50.946;14.610;2022-11-20T02:58:12;26.23;;;11.43;;
4198;SDS011;2113;50.946;14.610;2022-11-20T03:00:41;27.45;;;12.00;;
4198;SDS011;2113;50.946;14.610;2022-11-20T03:03:10;23.92;;;11.88;;
4198;SDS011;2113;50.946;14.610;2022-11-20T03:05:38;31.60;;;12.60;;
4198;SDS011;2113;50.946;14.610;2022-11-20T03:08:07;31.45;;;12.32;;
4198;SDS011;2113;50.946;14.610;2022-11-20T03:10:35;33.38;;;13.15;;
4198;SDS011;2113;50.946;14.610;2022-11-20T03:13:05;28.80;;;13.27;;
4198;SDS011;2113;50.946;14.610;2022-11-20T03:15:35;31.73;;;12.55;;
4198;SDS011;2113;50.946;14.610;2022-11-20T03:18:04;30.38;;;12.82;;
4198;SDS011;2113;50.946;14.610;2022-11-20T03:20:33;34.53;;;12.52;;
4198;SDS011;2113;50.946;14.610;2022-11-20T03:23:01;30.55;;;11.43;;
4198;SDS011;2113;50.946;14.610;2022-11-20T03:25:31;31.50;;;12.45;;
4198;SDS011;2113;50.946;14.610;2022-11-20T03:27:59;25.92;;;13.55;;
4198;SDS011;2113;50.946;14.610;2022-11-20T03:30:29;30.35;;;11.68;;
4198;SDS011;2113;50.946;14.610;2022-11-20T03:32:58;28.08;;;11.07;;
4198;SDS011;2113;50.946;14.610;2022-11-20T03:35:27;30.50;;;13.02;;
4198;SDS011;2113;50.946;14.610;2022-11-20T03:37:55;32.08;;;12.88;;
4198;SDS011;2113;50.946;14.610;2022-11-20T03:40:25;28.05;;;12.73;;
4198;SDS011;2113;50.946;14.610;2022-11-20T03:42:53;33.58;;;12.23;;
4198;SDS011;2113;50.946;14.610;2022-11-20T03:45:22;34.53;;;13.30;;
4198;SDS011;2113;50.946;14.610;2022-11-20T03:47:52;30.25;;;13.30;;
4198;SDS011;2113;50.946;14.610;2022-11-20T03:50:28;29.98;;;12.00;;
4198;SDS011;2113;50.946;14.610;2022-11-20T03:52:56;30.30;;;13.45;;
4198;SDS011;2113;50.946;14.610;2022-11-20T03:55:24;25.88;;;13.23;;
4198;SDS011;2113;50.946;14.610;2022-11-20T03:57:54;26.80;;;11.93;;
4198;SDS011;2113;50.946;14.610;2022-11-20T04:00:22;26.95;;;12.75;;
4198;SDS011;2113;50.946;14.610;2022-11-20T04:02:53;37.55;;;13.40;;
4198;SDS011;2113;50.946;14.610;2022-11-20T04:05:21;28.70;;;11.82;;
4198;SDS011;2113;50.946;14.610;2022-11-20T04:07:49;25.63;;;12.68;;
4198;SDS011;2113;50.946;14.610;2022-11-20T04:10:18;29.00;;;12.73;;
4198;SDS011;2113;50.946;14.610;2022-11-20T04:12:54;28.63;;;12.07;;
4198;SDS011;2113;50.946;14.610;2022-11-20T04:15:22;27.10;;;10.68;;
4198;SDS011;2113;50.946;14.610;2022-11-20T04:17:50;23.30;;;10.20;;
4198;SDS011;2113;50.946;14.610;2022-11-20T04:20:23;26.63;;;12.10;;
4198;SDS011;2113;50.946;14.610;2022-11-20T04:22:58;28.05;;;10.40;;
4198;SDS011;2113;50.946;14.610;2022-11-20T04:25:27;22.00;;;9.70;;
4198;SDS011;2113;50.946;14.610;2022-11-20T04:27:55;30.63;;;11.77;;
4198;SDS011;2113;50.946;14.610;2022-11-20T04:30:24;33.20;;;12.45;;
4198;SDS011;2113;50.946;14.610;2022-11-20T04:32:54;27.02;;;11.30;;
4198;SDS011;2113;50.946;14.610;2022-11-20T04:35:22;26.75;;;11.25;;
4198;SDS011;2113;50.946;14.610;2022-11-20T04:37:51;24.88;;;11.95;;
4198;SDS011;2113;50.946;14.610;2022-11-20T04:40:20;30.60;;;13.73;;
4198;SDS011;2113;50.946;14.610;2022-11-20T04:42:48;26.67;;;11.52;;
4198;SDS011;2113;50.946;14.610;2022-11-20T04:45:17;28.70;;;12.15;;
4198;SDS011;2113;50.946;14.610;2022-11-20T04:47:45;25.98;;;10.32;;
4198;SDS011;2113;50.946;14.610;2022-11-20T04:50:15;31.83;;;11.55;;
4198;SDS011;2113;50.946;14.610;2022-11-20T04:52:44;29.17;;;12.60;;
4198;SDS011;2113;50.946;14.610;2022-11-20T04:55:12;26.38;;;10.43;;
4198;SDS011;2113;50.946;14.610;2022-11-20T04:57:41;24.77;;;12.35;;
4198;SDS011;2113;50.946;14.610;2022-11-20T05:00:10;24.30;;;11.95;;
4198;SDS011;2113;50.946;14.610;2022-11-20T05:02:39;28.75;;;12.25;;
4198;SDS011;2113;50.946;14.610;2022-11-20T05:05:08;34.60;;;12.88;;
4198;SDS011;2113;50.946;14.610;2022-11-20T05:07:38;26.88;;;10.57;;
4198;SDS011;2113;50.946;14.610;2022-11-20T05:10:07;23.45;;;11.23;;
4198;SDS011;2113;50.946;14.610;2022-11-20T05:12:36;25.85;;;11.75;;
4198;SDS011;2113;50.946;14.610;2022-11-20T05:15:05;39.20;;;12.80;;
4198;SDS011;2113;50.946;14.610;2022-11-20T05:17:34;25.83;;;12.25;;
4198;SDS011;2113;50.946;14.610;2022-11-20T05:20:03;38.25;;;15.38;;
4198;SDS011;2113;50.946;14.610;2022-11-20T05:22:32;28.17;;;12.20;;
4198;SDS011;2113;50.946;14.610;2022-11-20T05:25:02;31.67;;;14.15;;
4198;SDS011;2113;50.946;14.610;2022-11-20T05:27:30;33.20;;;13.25;;
4198;SDS011;2113;50.946;14.610;2022-11-20T05:29:59;35.38;;;15.18;;
4198;SDS011;2113;50.946;14.610;2022-11-20T05:32:28;31.52;;;14.15;;
4198;SDS011;2113;50.946;14.610;2022-11-20T05:34:57;28.00;;;11.73;;
4198;SDS011;2113;50.946;14.610;2022-11-20T05:37:25;30.05;;;12.82;;
4198;SDS011;2113;50.946;14.610;2022-11-20T05:39:54;30.02;;;12.82;;
4198;SDS011;2113;50.946;14.610;2022-11-20T05:42:24;30.00;;;10.98;;
4198;SDS011;2113;50.946;14.610;2022-11-20T05:44:58;28.52;;;11.55;;
4198;SDS011;2113;50.946;14.610;2022-11-20T05:47:30;26.98;;;12.70;;
4198;SDS011;2113;50.946;14.610;2022-11-20T05:50:00;23.55;;;9.90;;
4198;SDS011;2113;50.946;14.610;2022-11-20T05:52:29;38.10;;;12.27;;
4198;SDS011;2113;50.946;14.610;2022-11-20T05:54:58;25.00;;;11.18;;
4198;SDS011;2113;50.946;14.610;2022-11-20T05:57:28;22.98;;;9.63;;
4198;SDS011;2113;50.946;14.610;2022-11-20T05:59:56;23.40;;;13.00;;
4198;SDS011;2113;50.946;14.610;2022-11-20T06:02:25;28.25;;;11.27;;
4198;SDS011;2113;50.946;14.610;2022-11-20T06:04:54;24.38;;;11.68;;
4198;SDS011;2113;50.946;14.610;2022-11-20T06:07:23;27.80;;;13.45;;
4198;SDS011;2113;50.946;14.610;2022-11-20T06:09:52;36.10;;;12.90;;
4198;SDS011;2113;50.946;14.610;2022-11-20T06:12:20;22.90;;;10.85;;
4198;SDS011;2113;50.946;14.610;2022-11-20T06:14:51;26.05;;;11.35;;
4198;SDS011;2113;50.946;14.610;2022-11-20T06:17:20;32.20;;;13.90;;
4198;SDS011;2113;50.946;14.610;2022-11-20T06:20:13;31.33;;;13.13;;
4198;SDS011;2113;50.946;14.610;2022-11-20T06:22:42;32.00;;;14.32;;
4198;SDS011;2113;50.946;14.610;2022-11-20T06:25:10;25.65;;;12.18;;
4198;SDS011;2113;50.946;14.610;2022-11-20T06:27:40;23.13;;;12.63;;
4198;SDS011;2113;50.946;14.610;2022-11-20T06:30:11;27.83;;;13.55;;
4198;SDS011;2113;50.946;14.610;2022-11-20T06:32:40;25.63;;;11.48;;
4198;SDS011;2113;50.946;14.610;2022-11-20T06:35:09;31.58;;;13.38;;
4198;SDS011;2113;50.946;14.610;2022-11-20T06:37:38;34.40;;;14.68;;
4198;SDS011;2113;50.946;14.610;2022-11-20T06:40:11;27.42;;;13.10;;
4198;SDS011;2113;50.946;14.610;2022-11-20T06:42:40;34.17;;;14.82;;
4198;SDS011;2113;50.946;14.610;2022-11-20T06:45:10;39.22;;;15.10;;
4198;SDS011;2113;50.946;14.610;2022-11-20T06:47:39;38.08;;;16.52;;
4198;SDS011;2113;50.946;14.610;2022-11-20T06:50:08;30.80;;;13.10;;
4198;SDS011;2113;50.946;14.610;2022-11-20T06:52:37;41.80;;;15.00;;
4198;SDS011;2113;50.946;14.610;2022-11-20T06:55:09;30.38;;;12.45;;
4198;SDS011;2113;50.946;14.610;2022-11-20T06:57:38;30.30;;;13.15;;
4198;SDS011;2113;50.946;14.610;2022-11-20T07:00:07;35.40;;;14.20;;
4198;SDS011;2113;50.946;14.610;2022-11-20T07:02:39;36.03;;;14.93;;
4198;SDS011;2113;50.946;14.610;2022-11-20T07:05:08;31.65;;;15.23;;
4198;SDS011;2113;50.946;14.610;2022-11-20T07:07:37;28.60;;;13.98;;
4198;SDS011;2113;50.946;14.610;2022-11-20T07:10:06;38.72;;;16.38;;
4198;SDS011;2113;50.946;14.610;2022-11-20T07:12:35;41.55;;;16.05;;
4198;SDS011;2113;50.946;14.610;2022-11-20T07:15:04;32.30;;;13.98;;
4198;SDS011;2113;50.946;14.610;2022-11-20T07:17:35;46.28;;;17.65;;
4198;SDS011;2113;50.946;14.610;2022-11-20T07:20:04;40.90;;;17.45;;
4198;SDS011;2113;50.946;14.610;2022-11-20T07:22:33;29.17;;;14.15;;
4198;SDS011;2113;50.946;14.610;2022-11-20T07:25:03;27.67;;;13.35;;
4198;SDS011;2113;50.946;14.610;2022-11-20T07:27:32;30.67;;;12.77;;
4198;SDS011;2113;50.946;14.610;2022-11-20T07:30:01;25.08;;;9.45;;
4198;SDS011;2113;50.946;14.610;2022-11-20T07:32:31;28.85;;;12.02;;
4198;SDS011;2113;50.946;14.610;2022-11-20T07:35:01;21.48;;;10.32;;
4198;SDS011;2113;50.946;14.610;2022-11-20T07:37:29;22.05;;;9.50;;
4198;SDS011;2113;50.946;14.610;2022-11-20T07:39:58;22.33;;;9.32;;
4198;SDS011;2113;50.946;14.610;2022-11-20T07:42:27;19.23;;;9.52;;
4198;SDS011;2113;50.946;14.610;2022-11-20T07:44:55;15.48;;;8.30;;
4198;SDS011;2113;50.946;14.610;2022-11-20T07:47:24;16.92;;;7.13;;
4198;SDS011;2113;50.946;14.610;2022-11-20T07:49:53;25.25;;;9.77;;
4198;SDS011;2113;50.946;14.610;2022-11-20T07:52:23;17.50;;;7.78;;
4198;SDS011;2113;50.946;14.610;2022-11-20T07:54:51;18.55;;;8.18;;
4198;SDS011;2113;50.946;14.610;2022-11-20T07:57:20;21.13;;;9.52;;
4198;SDS011;2113;50.946;14.610;2022-11-20T07:59:54;19.15;;;8.93;;
4198;SDS011;2113;50.946;14.610;2022-11-20T08:02:22;18.85;;;7.55;;
4198;SDS011;2113;50.946;14.610;2022-11-20T08:04:52;19.15;;;7.95;;
4198;SDS011;2113;50.946;14.610;2022-11-20T08:07:20;22.55;;;9.30;;
4198;SDS011;2113;50.946;14.610;2022-11-20T08:09:50;18.50;;;8.30;;
4198;SDS011;2113;50.946;14.610;2022-11-20T08:12:20;18.60;;;9.32;;
4198;SDS011;2113;50.946;14.610;2022-11-20T08:15:07;16.95;;;7.93;;
4198;SDS011;2113;50.946;14.610;2022-11-20T08:17:39;15.80;;;7.60;;
4198;SDS011;2113;50.946;14.610;2022-11-20T08:20:08;17.05;;;7.65;;
4198;SDS011;2113;50.946;14.610;2022-11-20T08:22:37;19.88;;;8.05;;
4198;SDS011;2113;50.946;14.610;2022-11-20T08:25:08;14.57;;;7.80;;
4198;SDS011;2113;50.946;14.610;2022-11-20T08:27:37;18.88;;;8.13;;
4198;SDS011;2113;50.946;14.610;2022-11-20T08:30:06;22.25;;;9.80;;
4198;SDS011;2113;50.946;14.610;2022-11-20T08:32:36;19.73;;;8.73;;
4198;SDS011;2113;50.946;14.610;2022-11-20T08:35:05;24.75;;;9.07;;
4198;SDS011;2113;50.946;14.610;2022-11-20T08:37:34;18.30;;;9.43;;
4198;SDS011;2113;50.946;14.610;2022-11-20T08:40:05;17.70;;;6.90;;
4198;SDS011;2113;50.946;14.610;2022-11-20T08:42:46;17.55;;;8.27;;
4198;SDS011;2113;50.946;14.610;2022-11-20T08:45:15;21.55;;;8.93;;
4198;SDS011;2113;50.946;14.610;2022-11-20T08:47:45;18.35;;;7.97;;
4198;SDS011;2113;50.946;14.610;2022-11-20T08:50:14;26.58;;;9.73;;
4198;SDS011;2113;50.946;14.610;2022-11-20T08:52:44;19.80;;;8.75;;
4198;SDS011;2113;50.946;14.610;2022-11-20T08:55:15;20.77;;;8.70;;
4198;SDS011;2113;50.946;14.610;2022-11-20T08:57:44;17.35;;;8.20;;
4198;SDS011;2113;50.946;14.610;2022-11-20T09:00:17;24.85;;;10.13;;
4198;SDS011;2113;50.946;14.610;2022-11-20T09:02:45;28.77;;;12.32;;
4198;SDS011;2113;50.946;14.610;2022-11-20T09:05:14;21.17;;;8.85;;
4198;SDS011;2113;50.946;14.610;2022-11-20T09:07:43;18.73;;;7.65;;
4198;SDS011;2113;50.946;14.610;2022-11-20T09:10:12;25.20;;;11.57;;
4198;SDS011;2113;50.946;14.610;2022-11-20T09:12:58;23.15;;;10.18;;
4198;SDS011;2113;50.946;14.610;2022-11-20T09:15:26;18.58;;;9.02;;
4198;SDS011;2113;50.946;14.610;2022-11-20T09:17:57;19.25;;;10.10;;
4198;SDS011;2113;50.946;14.610;2022-11-20T09:20:27;19.42;;;8.50;;
4198;SDS011;2113;50.946;14.610;2022-11-20T09:22:57;26.45;;;11.30;;
4198;SDS011;2113;50.946;14.610;2022-11-20T09:25:26;27.48;;;10.30;;
4198;SDS011;2113;50.946;14.610;2022-11-20T09:27:55;20.00;;;9.75;;
4198;SDS011;2113;50.946;14.610;2022-11-20T09:30:25;24.70;;;11.48;;
4198;SDS011;2113;50.946;14.610;2022-11-20T09:32:54;21.60;;;10.85;;
4198;SDS011;2113;50.946;14.610;2022-11-20T09:35:23;22.95;;;11.10;;
4198;SDS011;2113;50.946;14.610;2022-11-20T09:37:52;25.05;;;11.00;;
4198;SDS011;2113;50.946;14.610;2022-11-20T09:40:22;21.20;;;10.45;;
4198;SDS011;2113;50.946;14.610;2022-11-20T09:42:54;33.78;;;10.63;;
4198;SDS011;2113;50.946;14.610;2022-11-20T09:45:33;27.50;;;12.25;;
4198;SDS011;2113;50.946;14.610;2022-11-20T09:51:12;24.63;;;10.10;;
4198;SDS011;2113;50.946;14.610;2022-11-20T09:53:52;30.15;;;13.00;;
4198;SDS011;2113;50.946;14.610;2022-11-20T09:56:39;24.00;;;9.40;;
4198;SDS011;2113;50.946;14.610;2022-11-20T09:59:14;31.42;;;14.10;;
4198;SDS011;2113;50.946;14.610;2022-11-20T10:01:55;24.52;;;12.77;;
4198;SDS011;2113;50.946;14.610;2022-11-20T10:04:25;34.38;;;13.98;;
4198;SDS011;2113;50.946;14.610;2022-11-20T10:07:03;32.00;;;13.55;;
4198;SDS011;2113;50.946;14.610;2022-11-20T10:09:55;33.08;;;12.48;;
4198;SDS011;2113;50.946;14.610;2022-11-20T10:12:27;21.65;;;12.05;;
4198;SDS011;2113;50.946;14.610;2022-11-20T10:15:10;22.98;;;10.95;;
4198;SDS011;2113;50.946;14.610;2022-11-20T10:17:54;23.40;;;10.95;;
4198;SDS011;2113;50.946;14.610;2022-11-20T10:20:34;29.67;;;11.68;;
4198;SDS011;2113;50.946;14.610;2022-11-20T10:23:23;27.45;;;12.05;;
4198;SDS011;2113;50.946;14.610;2022-11-20T10:26:04;23.85;;;11.50;;
4198;SDS011;2113;50.946;14.610;2022-11-20T10:28:47;30.13;;;12.30;;
4198;SDS011;2113;50.946;14.610;2022-11-20T10:31:30;30.17;;;13.15;;
4198;SDS011;2113;50.946;14.610;2022-11-20T10:34:03;31.05;;;14.88;;
4198;SDS011;2113;50.946;14.610;2022-11-20T10:36:38;29.33;;;13.63;;
4198;SDS011;2113;50.946;14.610;2022-11-20T10:39:14;34.85;;;14.68;;
4198;SDS011;2113;50.946;14.610;2022-11-20T10:41:49;22.65;;;10.65;;
4198;SDS011;2113;50.946;14.610;2022-11-20T10:44:21;24.15;;;13.00;;
4198;SDS011;2113;50.946;14.610;2022-11-20T10:47:11;24.77;;;11.57;;
4198;SDS011;2113;50.946;14.610;2022-11-20T10:49:44;27.90;;;13.27;;
4198;SDS011;2113;50.946;14.610;2022-11-20T10:52:18;25.25;;;12.82;;
4198;SDS011;2113;50.946;14.610;2022-11-20T10:54:56;30.80;;;12.70;;
4198;SDS011;2113;50.946;14.610;2022-11-20T10:57:38;29.70;;;13.27;;
4198;SDS011;2113;50.946;14.610;2022-11-20T11:00:20;33.03;;;15.82;;
4198;SDS011;2113;50.946;14.610;2022-11-20T11:02:50;34.92;;;14.68;;
4198;SDS011;2113;50.946;14.610;2022-11-20T11:05:25;26.20;;;14.18;;
4198;SDS011;2113;50.946;14.610;2022-11-20T11:08:01;28.48;;;15.45;;
4198;SDS011;2113;50.946;14.610;2022-11-20T11:10:36;31.58;;;14.93;;
4198;SDS011;2113;50.946;14.610;2022-11-20T11:13:19;26.42;;;10.45;;
4198;SDS011;2113;50.946;14.610;2022-11-20T11:15:48;28.58;;;13.40;;
4198;SDS011;2113;50.946;14.610;2022-11-20T11:18:27;30.17;;;14.02;;
4198;SDS011;2113;50.946;14.610;2022-11-20T11:21:03;25.88;;;14.18;;
4198;SDS011;2113;50.946;14.610;2022-11-20T11:23:34;28.10;;;13.25;;
4198;SDS011;2113;50.946;14.610;2022-11-20T11:26:04;31.08;;;15.88;;
4198;SDS011;2113;50.946;14.610;2022-11-20T11:28:35;32.28;;;13.13;;
4198;SDS011;2113;50.946;14.610;2022-11-20T11:31:04;27.58;;;13.40;;
4198;SDS011;2113;50.946;14.610;2022-11-20T11:33:33;26.10;;;13.82;;
4198;SDS011;2113;50.946;14.610;2022-11-20T11:36:03;21.92;;;11.82;;
4198;SDS011;2113;50.946;14.610;2022-11-20T11:38:44;27.45;;;14.43;;
4198;SDS011;2113;50.946;14.610;2022-11-20T11:41:15;30.40;;;13.88;;
4198;SDS011;2113;50.946;14.610;2022-11-20T11:43:50;26.70;;;11.82;;
4198;SDS011;2113;50.946;14.610;2022-11-20T11:46:38;27.60;;;12.77;;
4198;SDS011;2113;50.946;14.610;2022-11-20T11:49:15;21.48;;;12.73;;
4198;SDS011;2113;50.946;14.610;2022-11-20T11:51:53;24.30;;;11.40;;
4198;SDS011;2113;50.946;14.610;2022-11-20T11:54:30;23.13;;;12.00;;
4198;SDS011;2113;50.946;14.610;2022-11-20T11:57:05;28.85;;;12.32;;
4198;SDS011;2113;50.946;14.610;2022-11-20T11:59:45;23.50;;;10.15;;
4198;SDS011;2113;50.946;14.610;2022-11-20T12:02:27;19.30;;;8.95;;
4198;SDS011;2113;50.946;14.610;2022-11-20T12:05:05;22.40;;;11.45;;
4198;SDS011;2113;50.946;14.610;2022-11-20T12:07:45;23.30;;;9.43;;
4198;SDS011;2113;50.946;14.610;2022-11-20T12:10:20;24.17;;;9.82;;
4198;SDS011;2113;50.946;14.610;2022-11-20T12:12:52;25.75;;;9.27;;
4198;SDS011;2113;50.946;14.610;2022-11-20T12:15:29;20.80;;;8.77;;
4198;SDS011;2113;50.946;14.610;2022-11-20T12:17:59;24.23;;;11.15;;
4198;SDS011;2113;50.946;14.610;2022-11-20T12:20:29;27.27;;;11.77;;
4198;SDS011;2113;50.946;14.610;2022-11-20T12:23:07;22.05;;;9.90;;
4198;SDS011;2113;50.946;14.610;2022-11-20T12:25:43;18.55;;;9.48;;
4198;SDS011;2113;50.946;14.610;2022-11-20T12:28:30;22.88;;;11.75;;
4198;SDS011;2113;50.946;14.610;2022-11-20T12:34:09;19.63;;;10.65;;
4198;SDS011;2113;50.946;14.610;2022-11-20T12:36:49;22.98;;;10.73;;
4198;SDS011;2113;50.946;14.610;2022-11-20T12:39:35;26.42;;;11.10;;
4198;SDS011;2113;50.946;14.610;2022-11-20T12:42:21;23.35;;;11.13;;
4198;SDS011;2113;50.946;14.610;2022-11-20T12:45:30;24.80;;;11.15;;
4198;SDS011;2113;50.946;14.610;2022-11-20T12:48:32;23.83;;;10.32;;
4198;SDS011;2113;50.946;14.610;2022-11-20T12:51:21;31.58;;;13.82;;
4198;SDS011;2113;50.946;14.610;2022-11-20T12:54:08;27.55;;;13.18;;
4198;SDS011;2113;50.946;14.610;2022-11-20T12:57:01;30.60;;;14.32;;
4198;SDS011;2113;50.946;14.610;2022-11-20T12:59:44;28.85;;;13.48;;
4198;SDS011;2113;50.946;14.610;2022-11-20T13:02:25;31.58;;;14.68;;
4198;SDS011;2113;50.946;14.610;2022-11-20T13:05:05;29.02;;;13.43;;
4198;SDS011;2113;50.946;14.610;2022-11-20T13:07:46;28.15;;;13.60;;
4198;SDS011;2113;50.946;14.610;2022-11-20T13:10:18;26.23;;;13.00;;
4198;SDS011;2113;50.946;14.610;2022-11-20T13:12:56;22.92;;;11.73;;
4198;SDS011;2113;50.946;14.610;2022-11-20T13:15:38;32.28;;;12.05;;
4198;SDS011;2113;50.946;14.610;2022-11-20T13:18:15;27.63;;;11.43;;
4198;SDS011;2113;50.946;14.610;2022-11-20T13:20:44;30.98;;;14.27;;
4198;SDS011;2113;50.946;14.610;2022-11-20T13:23:24;34.65;;;14.45;;
4198;SDS011;2113;50.946;14.610;2022-11-20T13:26:14;31.02;;;14.25;;
4198;SDS011;2113;50.946;14.610;2022-11-20T13:28:47;30.02;;;14.70;;
4198;SDS011;2113;50.946;14.610;2022-11-20T13:31:37;29.20;;;13.75;;
4198;SDS011;2113;50.946;14.610;2022-11-20T13:34:11;29.13;;;12.85;;
4198;SDS011;2113;50.946;14.610;2022-11-20T13:36:49;33.20;;;13.75;;
4198;SDS011;2113;50.946;14.610;2022-11-20T13:39:25;27.38;;;13.10;;
4198;SDS011;2113;50.946;14.610;2022-11-20T13:41:55;29.63;;;13.30;;
4198;SDS011;2113;50.946;14.610;2022-11-20T13:44:29;34.53;;;13.23;;
4198;SDS011;2113;50.946;14.610;2022-11-20T13:47:15;29.40;;;11.85;;
4198;SDS011;2113;50.946;14.610;2022-11-20T13:49:49;31.83;;;13.35;;
4198;SDS011;2113;50.946;14.610;2022-11-20T13:52:27;25.90;;;12.05;;
4198;SDS011;2113;50.946;14.610;2022-11-20T13:55:11;25.38;;;11.82;;
4198;SDS011;2113;50.946;14.610;2022-11-20T14:00:46;27.38;;;14.07;;
4198;SDS011;2113;50.946;14.610;2022-11-20T14:03:20;25.90;;;12.68;;
4198;SDS011;2113;50.946;14.610;2022-11-20T14:06:11;26.17;;;12.40;;
4198;SDS011;2113;50.946;14.610;2022-11-20T14:08:48;31.80;;;13.65;;
4198;SDS011;2113;50.946;14.610;2022-11-20T14:11:18;38.72;;;17.08;;
4198;SDS011;2113;50.946;14.610;2022-11-20T14:13:52;32.58;;;16.65;;
4198;SDS011;2113;50.946;14.610;2022-11-20T14:16:27;32.30;;;14.95;;
4198;SDS011;2113;50.946;14.610;2022-11-20T14:18:57;35.35;;;15.95;;
4198;SDS011;2113;50.946;14.610;2022-11-20T14:21:47;38.03;;;17.13;;
4198;SDS011;2113;50.946;14.610;2022-11-20T14:24:18;40.10;;;17.60;;
4198;SDS011;2113;50.946;14.610;2022-11-20T14:26:49;35.25;;;15.40;;
4198;SDS011;2113;50.946;14.610;2022-11-20T14:29:21;49.70;;;18.00;;
4198;SDS011;2113;50.946;14.610;2022-11-20T14:31:56;46.10;;;17.85;;
4198;SDS011;2113;50.946;14.610;2022-11-20T14:34:26;33.83;;;18.05;;
4198;SDS011;2113;50.946;14.610;2022-11-20T14:36:57;32.75;;;15.27;;
4198;SDS011;2113;50.946;14.610;2022-11-20T14:39:29;36.35;;;15.27;;
4198;SDS011;2113;50.946;14.610;2022-11-20T14:41:59;34.92;;;14.85;;
4198;SDS011;2113;50.946;14.610;2022-11-20T14:44:29;31.15;;;16.20;;
4198;SDS011;2113;50.946;14.610;2022-11-20T14:47:02;24.38;;;12.80;;
4198;SDS011;2113;50.946;14.610;2022-11-20T14:49:32;37.53;;;15.30;;
4198;SDS011;2113;50.946;14.610;2022-11-20T14:52:02;36.17;;;15.50;;
4198;SDS011;2113;50.946;14.610;2022-11-20T14:54:43;37.55;;;16.77;;
4198;SDS011;2113;50.946;14.610;2022-11-20T14:57:23;37.78;;;17.98;;
4198;SDS011;2113;50.946;14.610;2022-11-20T15:00:07;38.35;;;18.20;;
4198;SDS011;2113;50.946;14.610;2022-11-20T15:02:50;38.40;;;17.15;;
4198;SDS011;2113;50.946;14.610;2022-11-20T15:05:21;47.60;;;19.52;;
4198;SDS011;2113;50.946;14.610;2022-11-20T15:08:03;44.47;;;18.48;;
4198;SDS011;2113;50.946;14.610;2022-11-20T15:10:34;46.10;;;20.40;;
4198;SDS011;2113;50.946;14.610;2022-11-20T15:13:05;57.95;;;23.13;;
4198;SDS011;2113;50.946;14.610;2022-11-20T15:15:42;44.63;;;18.10;;
4198;SDS011;2113;50.946;14.610;2022-11-20T15:18:17;44.70;;;16.85;;